sensor_id;sensor_type;location;lat;lon;timestamp;P1;durP1;ratioP1;P2;durP2;ratioP2
1701;SDS011;848;48.354;10.064;2022-08-19T00:00:17;23.90;;;20.23;;
1701;SDS011;848;48.354;10.064;2022-08-19T00:02:44;22.50;;;19.52;;
1701;SDS011;848;48.354;10.064;2022-08-19T00:05:12;26.80;;;24.00;;
1701;SDS011;848;48.354;10.064;2022-08-19T00:07:40;26.83;;;22.98;;
1701;SDS011;848;48.354;10.064;2022-08-19T00:10:09;26.60;;;23.63;;
1701;SDS011;848;48.354;10.064;2022-08-19T00:12:39;23.88;;;21.40;;
1701;SDS011;848;48.354;10.064;2022-08-19T00:15:07;31.60;;;22.30;;
1701;SDS011;848;48.354;10.064;2022-08-19T00:17:38;24.08;;;20.63;;
1701;SDS011;848;48.354;10.064;2022-08-19T00:20:06;23.30;;;20.80;;
1701;SDS011;848;48.354;10.064;2022-08-19T00:22:35;26.92;;;24.02;;
1701;SDS011;848;48.354;10.064;2022-08-19T00:25:03;24.15;;;21.55;;
1701;SDS011;848;48.354;10.064;2022-08-19T00:27:30;26.48;;;22.80;;
1701;SDS011;848;48.354;10.064;2022-08-19T00:29:58;26.20;;;22.77;;
1701;SDS011;848;48.354;10.064;2022-08-19T00:32:25;25.17;;;21.85;;
1701;SDS011;848;48.354;10.064;2022-08-19T00:34:53;24.63;;;22.08;;
1701;SDS011;848;48.354;10.064;2022-08-19T00:37:20;23.85;;;20.58;;
1701;SDS011;848;48.354;10.064;2022-08-19T00:39:48;28.20;;;24.25;;
1701;SDS011;848;48.354;10.064;2022-08-19T00:42:16;24.65;;;22.10;;
1701;SDS011;848;48.354;10.064;2022-08-19T00:44:45;30.67;;;25.50;;
1701;SDS011;848;48.354;10.064;2022-08-19T00:47:12;27.25;;;24.05;;
1701;SDS011;848;48.354;10.064;2022-08-19T00:49:40;29.40;;;24.98;;
1701;SDS011;848;48.354;10.064;2022-08-19T00:52:18;28.17;;;24.83;;
1701;SDS011;848;48.354;10.064;2022-08-19T00:54:48;29.38;;;25.42;;
1701;SDS011;848;48.354;10.064;2022-08-19T00:57:18;27.50;;;24.50;;
1701;SDS011;848;48.354;10.064;2022-08-19T00:59:50;28.80;;;25.65;;
1701;SDS011;848;48.354;10.064;2022-08-19T01:02:19;27.80;;;24.85;;
1701;SDS011;848;48.354;10.064;2022-08-19T01:04:46;28.88;;;25.52;;
1701;SDS011;848;48.354;10.064;2022-08-19T01:07:13;29.42;;;26.35;;
1701;SDS011;848;48.354;10.064;2022-08-19T01:09:42;30.20;;;24.98;;
1701;SDS011;848;48.354;10.064;2022-08-19T01:12:09;30.27;;;24.58;;
1701;SDS011;848;48.354;10.064;2022-08-19T01:14:36;28.15;;;24.65;;
1701;SDS011;848;48.354;10.064;2022-08-19T01:17:04;31.80;;;25.25;;
1701;SDS011;848;48.354;10.064;2022-08-19T01:19:40;30.45;;;25.67;;
1701;SDS011;848;48.354;10.064;2022-08-19T01:22:10;32.83;;;25.25;;
1701;SDS011;848;48.354;10.064;2022-08-19T01:24:43;32.85;;;26.27;;
1701;SDS011;848;48.354;10.064;2022-08-19T01:27:11;29.80;;;26.58;;
1701;SDS011;848;48.354;10.064;2022-08-19T01:29:39;30.33;;;25.08;;
1701;SDS011;848;48.354;10.064;2022-08-19T01:32:07;27.75;;;24.73;;
1701;SDS011;848;48.354;10.064;2022-08-19T01:34:37;30.52;;;25.27;;
1701;SDS011;848;48.354;10.064;2022-08-19T01:37:07;30.02;;;26.17;;
1701;SDS011;848;48.354;10.064;2022-08-19T01:39:36;29.48;;;26.27;;
1701;SDS011;848;48.354;10.064;2022-08-19T01:42:06;30.20;;;26.27;;
1701;SDS011;848;48.354;10.064;2022-08-19T01:44:36;29.23;;;26.02;;
1701;SDS011;848;48.354;10.064;2022-08-19T01:47:03;30.88;;;26.13;;
1701;SDS011;848;48.354;10.064;2022-08-19T01:49:30;30.83;;;26.77;;
1701;SDS011;848;48.354;10.064;2022-08-19T01:51:58;29.05;;;25.05;;
1701;SDS011;848;48.354;10.064;2022-08-19T01:54:26;28.90;;;25.80;;
1701;SDS011;848;48.354;10.064;2022-08-19T01:56:55;29.50;;;25.95;;
1701;SDS011;848;48.354;10.064;2022-08-19T01:59:26;27.95;;;23.50;;
1701;SDS011;848;48.354;10.064;2022-08-19T02:01:54;27.88;;;24.67;;
1701;SDS011;848;48.354;10.064;2022-08-19T02:04:23;30.52;;;25.98;;
1701;SDS011;848;48.354;10.064;2022-08-19T02:06:50;30.55;;;26.15;;
1701;SDS011;848;48.354;10.064;2022-08-19T02:09:17;31.13;;;27.15;;
1701;SDS011;848;48.354;10.064;2022-08-19T02:11:44;31.77;;;27.30;;
1701;SDS011;848;48.354;10.064;2022-08-19T02:14:11;28.40;;;25.33;;
1701;SDS011;848;48.354;10.064;2022-08-19T02:16:40;31.83;;;26.67;;
1701;SDS011;848;48.354;10.064;2022-08-19T02:19:07;29.33;;;26.13;;
1701;SDS011;848;48.354;10.064;2022-08-19T02:21:35;32.25;;;27.70;;
1701;SDS011;848;48.354;10.064;2022-08-19T02:24:02;33.50;;;28.65;;
1701;SDS011;848;48.354;10.064;2022-08-19T02:26:29;31.98;;;27.80;;
1701;SDS011;848;48.354;10.064;2022-08-19T02:28:58;38.75;;;27.98;;
1701;SDS011;848;48.354;10.064;2022-08-19T02:31:25;36.33;;;27.85;;
1701;SDS011;848;48.354;10.064;2022-08-19T02:33:54;32.95;;;28.08;;
1701;SDS011;848;48.354;10.064;2022-08-19T02:36:22;32.45;;;26.58;;
1701;SDS011;848;48.354;10.064;2022-08-19T02:38:50;31.83;;;27.33;;
1701;SDS011;848;48.354;10.064;2022-08-19T02:41:17;32.70;;;28.57;;
1701;SDS011;848;48.354;10.064;2022-08-19T02:43:46;34.88;;;27.30;;
1701;SDS011;848;48.354;10.064;2022-08-19T02:46:14;32.47;;;26.90;;
1701;SDS011;848;48.354;10.064;2022-08-19T02:48:46;34.17;;;25.60;;
1701;SDS011;848;48.354;10.064;2022-08-19T02:51:19;32.17;;;26.33;;
1701;SDS011;848;48.354;10.064;2022-08-19T02:53:47;36.13;;;30.27;;
1701;SDS011;848;48.354;10.064;2022-08-19T02:56:14;36.25;;;28.50;;
1701;SDS011;848;48.354;10.064;2022-08-19T02:58:41;36.72;;;29.75;;
1701;SDS011;848;48.354;10.064;2022-08-19T03:01:08;36.08;;;28.77;;
1701;SDS011;848;48.354;10.064;2022-08-19T03:03:37;37.42;;;28.60;;
1701;SDS011;848;48.354;10.064;2022-08-19T03:06:06;38.60;;;30.27;;
1701;SDS011;848;48.354;10.064;2022-08-19T03:08:36;40.33;;;31.27;;
1701;SDS011;848;48.354;10.064;2022-08-19T03:11:04;40.47;;;30.25;;
1701;SDS011;848;48.354;10.064;2022-08-19T03:13:31;39.40;;;30.08;;
1701;SDS011;848;48.354;10.064;2022-08-19T03:15:58;38.17;;;29.83;;
1701;SDS011;848;48.354;10.064;2022-08-19T03:18:25;36.17;;;27.08;;
1701;SDS011;848;48.354;10.064;2022-08-19T03:20:52;32.22;;;26.35;;
1701;SDS011;848;48.354;10.064;2022-08-19T03:23:20;35.17;;;28.15;;
1701;SDS011;848;48.354;10.064;2022-08-19T03:25:49;35.42;;;28.50;;
1701;SDS011;848;48.354;10.064;2022-08-19T03:28:19;34.75;;;27.30;;
1701;SDS011;848;48.354;10.064;2022-08-19T03:30:56;36.65;;;27.77;;
1701;SDS011;848;48.354;10.064;2022-08-19T03:33:24;32.33;;;27.35;;
1701;SDS011;848;48.354;10.064;2022-08-19T03:36:01;35.42;;;27.15;;
1701;SDS011;848;48.354;10.064;2022-08-19T03:38:34;34.75;;;27.77;;
1701;SDS011;848;48.354;10.064;2022-08-19T03:41:03;33.88;;;27.85;;
1701;SDS011;848;48.354;10.064;2022-08-19T03:43:33;31.08;;;26.05;;
1701;SDS011;848;48.354;10.064;2022-08-19T03:46:02;31.05;;;25.88;;
1701;SDS011;848;48.354;10.064;2022-08-19T03:48:30;32.60;;;26.92;;
1701;SDS011;848;48.354;10.064;2022-08-19T03:50:58;32.05;;;26.65;;
1701;SDS011;848;48.354;10.064;2022-08-19T03:53:25;35.28;;;28.40;;
1701;SDS011;848;48.354;10.064;2022-08-19T03:55:53;41.72;;;29.00;;
1701;SDS011;848;48.354;10.064;2022-08-19T03:58:22;33.38;;;26.10;;
1701;SDS011;848;48.354;10.064;2022-08-19T04:00:49;37.08;;;27.98;;
1701;SDS011;848;48.354;10.064;2022-08-19T04:03:16;34.67;;;29.13;;
1701;SDS011;848;48.354;10.064;2022-08-19T04:05:44;35.50;;;27.85;;
1701;SDS011;848;48.354;10.064;2022-08-19T04:08:12;33.28;;;26.65;;
1701;SDS011;848;48.354;10.064;2022-08-19T04:10:44;36.78;;;29.58;;
1701;SDS011;848;48.354;10.064;2022-08-19T04:13:11;37.55;;;28.70;;
1701;SDS011;848;48.354;10.064;2022-08-19T04:15:40;35.92;;;28.25;;
1701;SDS011;848;48.354;10.064;2022-08-19T04:18:08;33.20;;;27.52;;
1701;SDS011;848;48.354;10.064;2022-08-19T04:20:39;34.60;;;28.35;;
1701;SDS011;848;48.354;10.064;2022-08-19T04:23:07;35.15;;;29.48;;
1701;SDS011;848;48.354;10.064;2022-08-19T04:25:35;36.28;;;29.55;;
1701;SDS011;848;48.354;10.064;2022-08-19T04:28:04;32.47;;;27.05;;
1701;SDS011;848;48.354;10.064;2022-08-19T04:30:36;35.53;;;29.23;;
1701;SDS011;848;48.354;10.064;2022-08-19T04:33:05;37.35;;;28.70;;
1701;SDS011;848;48.354;10.064;2022-08-19T04:35:36;35.53;;;27.63;;
1701;SDS011;848;48.354;10.064;2022-08-19T04:38:05;37.67;;;29.35;;
1701;SDS011;848;48.354;10.064;2022-08-19T04:40:32;40.83;;;31.58;;
1701;SDS011;848;48.354;10.064;2022-08-19T04:43:18;37.50;;;29.80;;
1701;SDS011;848;48.354;10.064;2022-08-19T04:45:45;40.30;;;31.75;;
1701;SDS011;848;48.354;10.064;2022-08-19T04:48:14;38.30;;;28.42;;
1701;SDS011;848;48.354;10.064;2022-08-19T04:50:41;35.15;;;28.38;;
1701;SDS011;848;48.354;10.064;2022-08-19T04:53:09;39.63;;;29.88;;
1701;SDS011;848;48.354;10.064;2022-08-19T04:55:40;37.08;;;27.90;;
1701;SDS011;848;48.354;10.064;2022-08-19T04:58:07;34.00;;;28.20;;
1701;SDS011;848;48.354;10.064;2022-08-19T05:00:37;38.85;;;29.02;;
1701;SDS011;848;48.354;10.064;2022-08-19T05:03:08;35.08;;;27.40;;
1701;SDS011;848;48.354;10.064;2022-08-19T05:05:39;36.90;;;28.77;;
1701;SDS011;848;48.354;10.064;2022-08-19T05:08:06;41.47;;;30.98;;
1701;SDS011;848;48.354;10.064;2022-08-19T05:10:34;36.88;;;28.30;;
1701;SDS011;848;48.354;10.064;2022-08-19T05:13:04;39.28;;;30.67;;
1701;SDS011;848;48.354;10.064;2022-08-19T05:15:35;36.08;;;27.95;;
1701;SDS011;848;48.354;10.064;2022-08-19T05:18:02;38.95;;;27.52;;
1701;SDS011;848;48.354;10.064;2022-08-19T05:20:48;42.30;;;30.60;;
1701;SDS011;848;48.354;10.064;2022-08-19T05:23:33;37.10;;;29.17;;
1701;SDS011;848;48.354;10.064;2022-08-19T05:26:00;41.35;;;32.53;;
1701;SDS011;848;48.354;10.064;2022-08-19T05:28:27;38.33;;;29.92;;
1701;SDS011;848;48.354;10.064;2022-08-19T05:30:54;34.75;;;28.27;;
1701;SDS011;848;48.354;10.064;2022-08-19T05:33:21;36.00;;;28.77;;
1701;SDS011;848;48.354;10.064;2022-08-19T05:35:50;35.50;;;27.35;;
1701;SDS011;848;48.354;10.064;2022-08-19T05:38:17;41.13;;;31.52;;
1701;SDS011;848;48.354;10.064;2022-08-19T05:40:45;36.58;;;28.30;;
1701;SDS011;848;48.354;10.064;2022-08-19T05:43:12;44.83;;;34.50;;
1701;SDS011;848;48.354;10.064;2022-08-19T05:45:40;44.58;;;29.73;;
1701;SDS011;848;48.354;10.064;2022-08-19T05:48:08;45.00;;;31.38;;
1701;SDS011;848;48.354;10.064;2022-08-19T05:50:36;40.33;;;30.05;;
1701;SDS011;848;48.354;10.064;2022-08-19T05:53:05;37.05;;;30.08;;
1701;SDS011;848;48.354;10.064;2022-08-19T05:55:33;38.85;;;31.35;;
1701;SDS011;848;48.354;10.064;2022-08-19T05:58:03;42.33;;;32.40;;
1701;SDS011;848;48.354;10.064;2022-08-19T06:00:32;41.50;;;32.03;;
1701;SDS011;848;48.354;10.064;2022-08-19T06:02:59;37.95;;;30.98;;
1701;SDS011;848;48.354;10.064;2022-08-19T06:05:28;40.65;;;30.15;;
1701;SDS011;848;48.354;10.064;2022-08-19T06:07:56;44.20;;;31.05;;
1701;SDS011;848;48.354;10.064;2022-08-19T06:10:27;45.95;;;32.97;;
1701;SDS011;848;48.354;10.064;2022-08-19T06:12:55;46.55;;;32.33;;
1701;SDS011;848;48.354;10.064;2022-08-19T06:15:23;44.60;;;32.50;;
1701;SDS011;848;48.354;10.064;2022-08-19T06:17:53;43.88;;;32.25;;
1701;SDS011;848;48.354;10.064;2022-08-19T06:20:20;40.90;;;31.58;;
1701;SDS011;848;48.354;10.064;2022-08-19T06:22:47;42.10;;;31.17;;
1701;SDS011;848;48.354;10.064;2022-08-19T06:25:16;46.30;;;32.67;;
1701;SDS011;848;48.354;10.064;2022-08-19T06:27:45;43.58;;;29.67;;
1701;SDS011;848;48.354;10.064;2022-08-19T06:30:12;42.70;;;31.17;;
1701;SDS011;848;48.354;10.064;2022-08-19T06:32:40;43.53;;;30.77;;
1701;SDS011;848;48.354;10.064;2022-08-19T06:35:07;42.05;;;29.45;;
1701;SDS011;848;48.354;10.064;2022-08-19T06:37:34;47.80;;;31.48;;
1701;SDS011;848;48.354;10.064;2022-08-19T06:40:02;47.78;;;32.45;;
1701;SDS011;848;48.354;10.064;2022-08-19T06:42:30;48.03;;;31.17;;
1701;SDS011;848;48.354;10.064;2022-08-19T06:44:59;46.97;;;32.47;;
1701;SDS011;848;48.354;10.064;2022-08-19T06:47:28;45.33;;;31.95;;
1701;SDS011;848;48.354;10.064;2022-08-19T06:49:56;43.20;;;30.63;;
1701;SDS011;848;48.354;10.064;2022-08-19T06:52:27;46.03;;;31.75;;
1701;SDS011;848;48.354;10.064;2022-08-19T06:54:54;47.17;;;32.10;;
1701;SDS011;848;48.354;10.064;2022-08-19T06:57:22;50.05;;;33.70;;
1701;SDS011;848;48.354;10.064;2022-08-19T06:59:50;48.40;;;31.52;;
1701;SDS011;848;48.354;10.064;2022-08-19T07:02:19;41.22;;;31.00;;
1701;SDS011;848;48.354;10.064;2022-08-19T07:04:46;41.47;;;29.65;;
1701;SDS011;848;48.354;10.064;2022-08-19T07:07:14;48.85;;;30.98;;
1701;SDS011;848;48.354;10.064;2022-08-19T07:09:42;42.63;;;28.92;;
1701;SDS011;848;48.354;10.064;2022-08-19T07:12:10;45.80;;;30.50;;
1701;SDS011;848;48.354;10.064;2022-08-19T07:14:40;48.35;;;31.70;;
1701;SDS011;848;48.354;10.064;2022-08-19T07:17:09;44.65;;;29.17;;
1701;SDS011;848;48.354;10.064;2022-08-19T07:19:38;41.95;;;29.25;;
1701;SDS011;848;48.354;10.064;2022-08-19T07:22:06;46.53;;;31.02;;
1701;SDS011;848;48.354;10.064;2022-08-19T07:24:34;38.83;;;28.80;;
1701;SDS011;848;48.354;10.064;2022-08-19T07:27:02;41.75;;;30.52;;
1701;SDS011;848;48.354;10.064;2022-08-19T07:29:33;41.83;;;29.10;;
1701;SDS011;848;48.354;10.064;2022-08-19T07:32:01;40.35;;;28.48;;
1701;SDS011;848;48.354;10.064;2022-08-19T07:34:29;31.50;;;24.27;;
1701;SDS011;848;48.354;10.064;2022-08-19T07:37:03;39.25;;;28.60;;
1701;SDS011;848;48.354;10.064;2022-08-19T07:39:32;36.67;;;26.00;;
1701;SDS011;848;48.354;10.064;2022-08-19T07:42:02;40.15;;;27.65;;
1701;SDS011;848;48.354;10.064;2022-08-19T07:44:32;36.92;;;27.38;;
1701;SDS011;848;48.354;10.064;2022-08-19T07:47:00;41.08;;;29.27;;
1701;SDS011;848;48.354;10.064;2022-08-19T07:49:27;38.60;;;27.90;;
1701;SDS011;848;48.354;10.064;2022-08-19T07:51:55;39.90;;;28.77;;
1701;SDS011;848;48.354;10.064;2022-08-19T07:54:25;39.33;;;26.83;;
1701;SDS011;848;48.354;10.064;2022-08-19T07:56:54;38.13;;;29.20;;
1701;SDS011;848;48.354;10.064;2022-08-19T07:59:22;43.80;;;28.17;;
1701;SDS011;848;48.354;10.064;2022-08-19T08:01:50;36.80;;;25.17;;
1701;SDS011;848;48.354;10.064;2022-08-19T08:04:18;39.50;;;28.77;;
1701;SDS011;848;48.354;10.064;2022-08-19T08:07:03;38.13;;;27.38;;
1701;SDS011;848;48.354;10.064;2022-08-19T08:09:49;38.63;;;26.40;;
1701;SDS011;848;48.354;10.064;2022-08-19T08:12:18;37.20;;;28.38;;
1701;SDS011;848;48.354;10.064;2022-08-19T08:14:48;39.10;;;28.33;;
1701;SDS011;848;48.354;10.064;2022-08-19T08:17:18;33.53;;;26.50;;
1701;SDS011;848;48.354;10.064;2022-08-19T08:19:47;31.80;;;23.23;;
1701;SDS011;848;48.354;10.064;2022-08-19T08:22:16;35.20;;;27.00;;
1701;SDS011;848;48.354;10.064;2022-08-19T08:25:02;38.50;;;25.95;;
1701;SDS011;848;48.354;10.064;2022-08-19T08:27:30;32.53;;;22.10;;
1701;SDS011;848;48.354;10.064;2022-08-19T08:30:01;30.20;;;22.17;;
1701;SDS011;848;48.354;10.064;2022-08-19T08:32:29;28.40;;;21.65;;
1701;SDS011;848;48.354;10.064;2022-08-19T08:34:56;28.25;;;21.45;;
1701;SDS011;848;48.354;10.064;2022-08-19T08:37:24;28.60;;;22.67;;
1701;SDS011;848;48.354;10.064;2022-08-19T08:39:51;31.15;;;21.65;;
1701;SDS011;848;48.354;10.064;2022-08-19T08:42:22;31.20;;;23.67;;
1701;SDS011;848;48.354;10.064;2022-08-19T08:44:55;34.97;;;24.83;;
1701;SDS011;848;48.354;10.064;2022-08-19T08:47:26;35.55;;;25.38;;
1701;SDS011;848;48.354;10.064;2022-08-19T08:49:59;38.92;;;26.05;;
1701;SDS011;848;48.354;10.064;2022-08-19T08:52:29;35.17;;;27.20;;
1701;SDS011;848;48.354;10.064;2022-08-19T08:55:05;38.30;;;27.42;;
1701;SDS011;848;48.354;10.064;2022-08-19T08:57:37;40.60;;;28.83;;
1701;SDS011;848;48.354;10.064;2022-08-19T09:00:20;45.38;;;31.05;;
1701;SDS011;848;48.354;10.064;2022-08-19T09:02:50;42.33;;;29.88;;
1701;SDS011;848;48.354;10.064;2022-08-19T09:05:17;41.88;;;29.85;;
1701;SDS011;848;48.354;10.064;2022-08-19T09:07:47;40.15;;;29.45;;
1701;SDS011;848;48.354;10.064;2022-08-19T09:10:25;44.13;;;30.90;;
1701;SDS011;848;48.354;10.064;2022-08-19T09:13:00;44.42;;;30.45;;
1701;SDS011;848;48.354;10.064;2022-08-19T09:15:36;42.33;;;28.30;;
1701;SDS011;848;48.354;10.064;2022-08-19T09:18:07;43.95;;;31.23;;
1701;SDS011;848;48.354;10.064;2022-08-19T09:20:35;44.63;;;31.90;;
1701;SDS011;848;48.354;10.064;2022-08-19T09:23:01;51.97;;;32.22;;
1701;SDS011;848;48.354;10.064;2022-08-19T09:25:29;45.00;;;30.65;;
1701;SDS011;848;48.354;10.064;2022-08-19T09:28:00;47.33;;;30.70;;
1701;SDS011;848;48.354;10.064;2022-08-19T09:30:30;42.90;;;31.42;;
1701;SDS011;848;48.354;10.064;2022-08-19T09:32:59;49.45;;;32.55;;
1701;SDS011;848;48.354;10.064;2022-08-19T09:35:27;46.47;;;32.95;;
1701;SDS011;848;48.354;10.064;2022-08-19T09:37:56;45.20;;;31.88;;
1701;SDS011;848;48.354;10.064;2022-08-19T09:40:24;48.10;;;31.13;;
1701;SDS011;848;48.354;10.064;2022-08-19T09:42:52;46.80;;;31.52;;
1701;SDS011;848;48.354;10.064;2022-08-19T09:45:21;48.13;;;34.47;;
1701;SDS011;848;48.354;10.064;2022-08-19T09:47:48;50.67;;;31.20;;
1701;SDS011;848;48.354;10.064;2022-08-19T09:50:17;45.60;;;31.45;;
1701;SDS011;848;48.354;10.064;2022-08-19T09:52:45;45.17;;;30.98;;
1701;SDS011;848;48.354;10.064;2022-08-19T09:55:12;43.95;;;30.95;;
1701;SDS011;848;48.354;10.064;2022-08-19T09:57:41;48.20;;;33.20;;
1701;SDS011;848;48.354;10.064;2022-08-19T10:00:08;48.05;;;33.55;;
1701;SDS011;848;48.354;10.064;2022-08-19T10:02:37;48.10;;;33.00;;
1701;SDS011;848;48.354;10.064;2022-08-19T10:05:04;42.30;;;31.05;;
1701;SDS011;848;48.354;10.064;2022-08-19T10:07:49;43.05;;;31.02;;
1701;SDS011;848;48.354;10.064;2022-08-19T10:10:16;42.72;;;31.75;;
1701;SDS011;848;48.354;10.064;2022-08-19T10:12:44;45.50;;;32.78;;
1701;SDS011;848;48.354;10.064;2022-08-19T10:15:12;44.60;;;33.13;;
1701;SDS011;848;48.354;10.064;2022-08-19T10:17:41;46.58;;;32.95;;
1701;SDS011;848;48.354;10.064;2022-08-19T10:20:08;42.55;;;32.00;;
1701;SDS011;848;48.354;10.064;2022-08-19T10:22:35;42.30;;;32.15;;
1701;SDS011;848;48.354;10.064;2022-08-19T10:25:05;44.00;;;31.40;;
1701;SDS011;848;48.354;10.064;2022-08-19T10:27:33;41.55;;;29.90;;
1701;SDS011;848;48.354;10.064;2022-08-19T10:30:00;46.88;;;33.00;;
1701;SDS011;848;48.354;10.064;2022-08-19T10:32:27;40.08;;;30.63;;
1701;SDS011;848;48.354;10.064;2022-08-19T10:34:56;41.65;;;30.83;;
1701;SDS011;848;48.354;10.064;2022-08-19T10:37:23;40.75;;;30.83;;
1701;SDS011;848;48.354;10.064;2022-08-19T10:39:50;42.42;;;32.28;;
1701;SDS011;848;48.354;10.064;2022-08-19T10:42:17;44.95;;;32.05;;
1701;SDS011;848;48.354;10.064;2022-08-19T10:44:45;42.55;;;31.75;;
1701;SDS011;848;48.354;10.064;2022-08-19T10:47:13;40.83;;;32.72;;
1701;SDS011;848;48.354;10.064;2022-08-19T10:49:40;37.65;;;29.10;;
1701;SDS011;848;48.354;10.064;2022-08-19T10:52:22;35.78;;;29.20;;
1701;SDS011;848;48.354;10.064;2022-08-19T10:55:02;38.38;;;29.23;;
1701;SDS011;848;48.354;10.064;2022-08-19T10:57:48;38.15;;;29.75;;
1701;SDS011;848;48.354;10.064;2022-08-19T11:00:17;38.13;;;28.75;;
1701;SDS011;848;48.354;10.064;2022-08-19T11:02:45;39.25;;;29.58;;
1701;SDS011;848;48.354;10.064;2022-08-19T11:05:12;42.90;;;30.15;;
1701;SDS011;848;48.354;10.064;2022-08-19T11:07:41;39.60;;;29.77;;
1701;SDS011;848;48.354;10.064;2022-08-19T11:10:10;37.80;;;28.88;;
1701;SDS011;848;48.354;10.064;2022-08-19T11:12:39;40.58;;;31.23;;
1701;SDS011;848;48.354;10.064;2022-08-19T11:15:07;42.80;;;30.88;;
1701;SDS011;848;48.354;10.064;2022-08-19T11:17:36;41.30;;;30.30;;
1701;SDS011;848;48.354;10.064;2022-08-19T11:20:06;43.97;;;30.60;;
1701;SDS011;848;48.354;10.064;2022-08-19T11:22:34;40.03;;;29.45;;
1701;SDS011;848;48.354;10.064;2022-08-19T11:25:02;40.80;;;30.63;;
1701;SDS011;848;48.354;10.064;2022-08-19T11:27:30;39.80;;;29.40;;
1701;SDS011;848;48.354;10.064;2022-08-19T11:29:57;38.72;;;29.75;;
1701;SDS011;848;48.354;10.064;2022-08-19T11:32:24;39.95;;;28.60;;
1701;SDS011;848;48.354;10.064;2022-08-19T11:34:51;33.45;;;25.80;;
1701;SDS011;848;48.354;10.064;2022-08-19T11:37:19;38.03;;;29.08;;
1701;SDS011;848;48.354;10.064;2022-08-19T11:39:46;34.80;;;26.40;;
1701;SDS011;848;48.354;10.064;2022-08-19T11:42:14;32.53;;;25.50;;
1701;SDS011;848;48.354;10.064;2022-08-19T11:45:03;31.55;;;24.38;;
1701;SDS011;848;48.354;10.064;2022-08-19T11:47:30;30.25;;;26.02;;
1701;SDS011;848;48.354;10.064;2022-08-19T11:49:58;32.38;;;24.48;;
1701;SDS011;848;48.354;10.064;2022-08-19T11:52:25;31.25;;;24.95;;
1701;SDS011;848;48.354;10.064;2022-08-19T11:54:51;30.52;;;23.65;;
1701;SDS011;848;48.354;10.064;2022-08-19T11:57:20;32.42;;;24.45;;
1701;SDS011;848;48.354;10.064;2022-08-19T11:59:47;29.95;;;24.65;;
1701;SDS011;848;48.354;10.064;2022-08-19T12:02:15;27.90;;;22.88;;
1701;SDS011;848;48.354;10.064;2022-08-19T12:04:42;29.00;;;22.80;;
1701;SDS011;848;48.354;10.064;2022-08-19T12:07:09;28.08;;;21.73;;
1701;SDS011;848;48.354;10.064;2022-08-19T12:09:36;28.17;;;21.13;;
1701;SDS011;848;48.354;10.064;2022-08-19T12:12:04;27.67;;;21.40;;
1701;SDS011;848;48.354;10.064;2022-08-19T12:14:33;26.33;;;21.08;;
1701;SDS011;848;48.354;10.064;2022-08-19T12:17:00;30.98;;;22.60;;
1701;SDS011;848;48.354;10.064;2022-08-19T12:19:29;25.55;;;20.13;;
1701;SDS011;848;48.354;10.064;2022-08-19T12:21:58;30.80;;;22.30;;
1701;SDS011;848;48.354;10.064;2022-08-19T12:24:26;29.55;;;23.60;;
1701;SDS011;848;48.354;10.064;2022-08-19T12:26:54;26.50;;;21.30;;
1701;SDS011;848;48.354;10.064;2022-08-19T12:29:21;28.27;;;21.55;;
1701;SDS011;848;48.354;10.064;2022-08-19T12:31:50;32.28;;;23.23;;
1701;SDS011;848;48.354;10.064;2022-08-19T12:34:17;29.70;;;22.55;;
1701;SDS011;848;48.354;10.064;2022-08-19T12:36:45;29.45;;;23.45;;
1701;SDS011;848;48.354;10.064;2022-08-19T12:39:14;32.22;;;22.88;;
1701;SDS011;848;48.354;10.064;2022-08-19T12:41:41;32.95;;;24.45;;
1701;SDS011;848;48.354;10.064;2022-08-19T12:44:07;26.70;;;22.25;;
1701;SDS011;848;48.354;10.064;2022-08-19T12:46:35;31.00;;;23.75;;
1701;SDS011;848;48.354;10.064;2022-08-19T12:49:04;31.42;;;24.13;;
1701;SDS011;848;48.354;10.064;2022-08-19T12:51:31;31.05;;;23.20;;
1701;SDS011;848;48.354;10.064;2022-08-19T12:53:58;28.20;;;20.65;;
1701;SDS011;848;48.354;10.064;2022-08-19T12:56:26;28.80;;;22.55;;
1701;SDS011;848;48.354;10.064;2022-08-19T12:58:53;30.98;;;23.77;;
1701;SDS011;848;48.354;10.064;2022-08-19T13:01:23;28.02;;;22.65;;
1701;SDS011;848;48.354;10.064;2022-08-19T13:03:50;32.50;;;24.90;;
1701;SDS011;848;48.354;10.064;2022-08-19T13:06:19;30.73;;;24.08;;
1701;SDS011;848;48.354;10.064;2022-08-19T13:08:47;30.02;;;21.88;;
1701;SDS011;848;48.354;10.064;2022-08-19T13:11:15;30.33;;;23.38;;
1701;SDS011;848;48.354;10.064;2022-08-19T13:13:45;27.55;;;22.33;;
1701;SDS011;848;48.354;10.064;2022-08-19T13:16:14;27.63;;;21.20;;
1701;SDS011;848;48.354;10.064;2022-08-19T13:18:41;25.13;;;20.70;;
1701;SDS011;848;48.354;10.064;2022-08-19T13:21:11;29.95;;;20.38;;
1701;SDS011;848;48.354;10.064;2022-08-19T13:23:39;22.83;;;18.63;;
1701;SDS011;848;48.354;10.064;2022-08-19T13:26:07;31.67;;;20.73;;
1701;SDS011;848;48.354;10.064;2022-08-19T13:28:35;29.10;;;19.95;;
1701;SDS011;848;48.354;10.064;2022-08-19T13:31:20;23.58;;;18.98;;
1701;SDS011;848;48.354;10.064;2022-08-19T13:34:06;26.20;;;20.13;;
1701;SDS011;848;48.354;10.064;2022-08-19T13:36:34;23.38;;;18.80;;
1701;SDS011;848;48.354;10.064;2022-08-19T13:39:03;20.15;;;16.45;;
1701;SDS011;848;48.354;10.064;2022-08-19T13:41:30;24.08;;;16.73;;
1701;SDS011;848;48.354;10.064;2022-08-19T13:43:58;14.30;;;12.32;;
1701;SDS011;848;48.354;10.064;2022-08-19T13:46:26;13.95;;;12.13;;
1701;SDS011;848;48.354;10.064;2022-08-19T13:48:55;18.27;;;13.30;;
1701;SDS011;848;48.354;10.064;2022-08-19T13:51:22;14.60;;;10.35;;
1701;SDS011;848;48.354;10.064;2022-08-19T13:53:49;8.57;;;7.10;;
1701;SDS011;848;48.354;10.064;2022-08-19T13:56:18;9.25;;;7.85;;
1701;SDS011;848;48.354;10.064;2022-08-19T13:58:45;7.80;;;6.30;;
1701;SDS011;848;48.354;10.064;2022-08-19T14:01:17;8.77;;;7.30;;
1701;SDS011;848;48.354;10.064;2022-08-19T14:03:46;7.88;;;6.93;;
1701;SDS011;848;48.354;10.064;2022-08-19T14:06:13;9.25;;;7.80;;
1701;SDS011;848;48.354;10.064;2022-08-19T14:08:39;9.45;;;7.43;;
1701;SDS011;848;48.354;10.064;2022-08-19T14:11:07;10.68;;;8.02;;
1701;SDS011;848;48.354;10.064;2022-08-19T14:13:38;10.07;;;7.40;;
1701;SDS011;848;48.354;10.064;2022-08-19T14:16:08;8.13;;;7.30;;
1701;SDS011;848;48.354;10.064;2022-08-19T14:18:36;8.45;;;7.35;;
1701;SDS011;848;48.354;10.064;2022-08-19T14:21:04;8.95;;;7.80;;
1701;SDS011;848;48.354;10.064;2022-08-19T14:23:32;9.45;;;8.45;;
1701;SDS011;848;48.354;10.064;2022-08-19T14:26:03;9.95;;;8.95;;
1701;SDS011;848;48.354;10.064;2022-08-19T14:28:31;12.43;;;11.13;;
1701;SDS011;848;48.354;10.064;2022-08-19T14:30:59;13.40;;;11.45;;
1701;SDS011;848;48.354;10.064;2022-08-19T14:33:26;13.05;;;11.60;;
1701;SDS011;848;48.354;10.064;2022-08-19T14:35:55;16.50;;;14.05;;
1701;SDS011;848;48.354;10.064;2022-08-19T14:38:21;14.82;;;13.32;;
1701;SDS011;848;48.354;10.064;2022-08-19T14:40:48;14.82;;;13.35;;
1701;SDS011;848;48.354;10.064;2022-08-19T14:43:17;18.00;;;15.05;;
1701;SDS011;848;48.354;10.064;2022-08-19T14:45:44;15.75;;;12.93;;
1701;SDS011;848;48.354;10.064;2022-08-19T14:48:13;16.38;;;13.07;;
1701;SDS011;848;48.354;10.064;2022-08-19T14:50:40;19.50;;;14.48;;
1701;SDS011;848;48.354;10.064;2022-08-19T14:53:07;17.25;;;12.52;;
1701;SDS011;848;48.354;10.064;2022-08-19T14:55:35;18.20;;;13.50;;
1701;SDS011;848;48.354;10.064;2022-08-19T14:58:02;16.35;;;14.55;;